Time;durP1;ratioP1;P1;durP2;ratioP2;P2;SDS_P1;SDS_P2;PMS_P1;PMS_P2;Temp;Humidity;BMP_temperature;BMP_pressure;BME280_temperature;BME280_humidity;BME280_pressure;Samples;Min_cycle;Max_cycle;Signal;HPM_P1;HPM_P2
2022/07/08 00:00:51;;;;;;;2.10;2.00;;;17.30;99.90;;;18.18;71.40;98867.66;5136343;28;20232;-60
2022/07/08 00:03:24;;;;;;;3.40;2.22;;;17.40;99.90;;;18.17;71.30;98872.75;5133053;28;20664;-61
2022/07/08 00:05:59;;;;;;;2.55;2.30;;;17.30;99.90;;;18.15;71.61;98874.41;5135439;28;20291;-60
2022/07/08 00:08:33;;;;;;;2.20;2.10;;;17.40;99.90;;;18.18;71.23;98879.72;5140649;28;20203;-61
2022/07/08 00:11:06;;;;;;;2.80;2.40;;;17.30;99.90;;;18.15;70.30;98882.19;5139100;28;20216;-61
2022/07/08 00:13:39;;;;;;;2.83;2.20;;;17.30;99.90;;;18.12;70.84;98872.56;5138272;28;20657;-61
2022/07/08 00:16:12;;;;;;;2.33;2.20;;;17.30;99.90;;;18.13;71.33;98876.03;5139710;28;20219;-61
2022/07/08 00:18:46;;;;;;;3.25;1.90;;;17.30;99.90;;;18.09;70.66;98876.75;5142294;28;20235;-61
2022/07/08 00:21:20;;;;;;;2.10;2.00;;;17.30;99.90;;;18.05;71.28;98874.81;5138664;28;20815;-61
2022/07/08 00:23:54;;;;;;;2.10;2.00;;;17.20;99.90;;;18.01;71.41;98884.16;5140831;28;20195;-59
2022/07/08 00:26:27;;;;;;;2.33;2.13;;;17.20;99.90;;;18.02;71.91;98880.75;5141665;28;20259;-62
2022/07/08 00:29:00;;;;;;;2.30;2.10;;;17.20;99.90;;;18.04;71.44;98878.22;5139036;28;20283;-61
2022/07/08 00:31:33;;;;;;;2.40;2.08;;;17.20;99.90;;;18.00;72.68;98880.69;5139870;28;20216;-60
2022/07/08 00:34:07;;;;;;;2.17;2.00;;;17.20;99.90;;;18.01;71.13;98879.84;5138362;28;20256;-60
2022/07/08 00:36:41;;;;;;;2.28;2.08;;;17.20;99.90;;;18.00;71.16;98888.44;5137839;28;20207;-60
2022/07/08 00:39:14;;;;;;;4.03;2.30;;;17.10;99.90;;;17.92;72.15;98879.47;5138089;28;20212;-60
2022/07/08 00:41:47;;;;;;;2.28;2.08;;;17.10;99.90;;;17.89;72.16;98883.63;5138645;28;20753;-60
2022/07/08 00:44:21;;;;;;;2.40;2.20;;;17.00;99.90;;;17.80;72.21;98894.44;5140458;28;20212;-62
2022/07/08 00:46:54;;;;;;;2.63;2.22;;;17.00;99.90;;;17.78;72.36;98890.88;5138248;28;20247;-61
2022/07/08 00:49:28;;;;;;;2.65;2.45;;;16.90;99.90;;;17.70;73.29;98902.53;5140197;28;20207;-61
2022/07/08 00:52:03;;;;;;;2.75;2.53;;;16.90;99.90;;;17.61;73.15;98899.53;5139870;28;20216;-61
2022/07/08 00:54:37;;;;;;;2.45;2.25;;;16.80;99.90;;;17.56;73.75;98900.19;5139589;28;20206;-60
2022/07/08 00:57:12;;;;;;;2.45;2.17;;;16.70;99.90;;;17.45;73.34;98905.69;5138986;28;20195;-60
2022/07/08 00:59:45;;;;;;;2.72;2.50;;;16.60;99.90;;;17.39;73.86;98906.28;5140191;28;20254;-60
2022/07/08 01:02:18;;;;;;;3.08;2.88;;;16.60;99.90;;;17.37;74.28;98909.59;5139111;28;20212;-61
2022/07/08 01:04:52;;;;;;;3.30;2.45;;;16.50;99.90;;;17.29;74.77;98910.16;5139890;28;20623;-61
2022/07/08 01:07:26;;;;;;;2.65;2.55;;;16.50;99.90;;;17.22;74.22;98907.19;5139609;28;20231;-60
2022/07/08 01:10:00;;;;;;;2.90;2.70;;;16.40;99.90;;;17.19;74.82;98909.63;5138011;28;20199;-62
2022/07/08 01:12:33;;;;;;;2.70;2.50;;;16.40;99.90;;;17.14;74.77;98898.19;5141878;28;20204;-61
2022/07/08 01:15:09;;;;;;;3.10;2.90;;;16.30;99.90;;;17.15;74.37;98905.13;5138370;28;20649;-61
2022/07/08 01:17:43;;;;;;;3.72;3.20;;;16.30;99.90;;;17.11;74.86;98912.75;5137525;28;20231;-61
2022/07/08 01:20:16;;;;;;;3.00;2.80;;;16.30;99.90;;;17.03;74.39;98914.06;5137412;28;20243;-59
2022/07/08 01:22:51;;;;;;;3.25;2.80;;;16.20;99.90;;;17.02;74.54;98907.09;5141294;28;20227;-61
2022/07/08 01:25:25;;;;;;;4.03;3.13;;;16.20;99.90;;;16.96;75.31;98917.16;5134780;28;20215;-61
2022/07/08 01:27:58;;;;;;;5.15;3.38;;;16.20;99.90;;;16.98;74.77;98923.28;5136908;28;20197;-59
2022/07/08 01:30:31;;;;;;;3.35;2.92;;;16.20;99.90;;;16.96;74.80;98922.31;5141766;28;20223;-61
2022/07/08 01:33:04;;;;;;;3.80;2.80;;;16.20;99.90;;;16.97;74.84;98926.69;5141322;28;20231;-59
2022/07/08 01:35:37;;;;;;;3.47;3.03;;;16.30;99.90;;;17.02;74.63;98930.34;5139168;28;20207;-59
2022/07/08 01:38:12;;;;;;;3.75;2.90;;;16.30;99.90;;;17.06;73.53;98921.97;5136228;28;20231;-60
2022/07/08 01:40:45;;;;;;;3.80;3.40;;;16.30;99.90;;;17.09;73.21;98927.28;5134961;28;20673;-60
2022/07/08 01:43:20;;;;;;;6.13;3.40;;;16.30;99.90;;;17.17;72.34;98929.31;5143911;28;20276;-61
2022/07/08 01:45:53;;;;;;;3.63;3.15;;;16.40;99.90;;;17.16;73.08;98924.97;5139775;28;21291;-62
2022/07/08 01:48:27;;;;;;;3.33;3.03;;;16.40;99.90;;;17.10;72.36;98933.31;5140110;28;20215;-61
2022/07/08 01:51:00;;;;;;;4.80;2.97;;;16.30;99.90;;;17.15;71.29;98934.44;5138958;28;20310;-60
2022/07/08 01:53:35;;;;;;;5.22;3.17;;;16.30;99.90;;;17.13;71.67;98938.63;5139084;28;20235;-59
2022/07/08 01:56:08;;;;;;;3.22;2.92;;;16.40;99.90;;;17.13;72.04;98945.50;5136488;28;20684;-61
2022/07/08 01:58:41;;;;;;;3.13;2.83;;;16.40;99.90;;;17.18;72.45;98954.38;5137181;28;20208;-61
2022/07/08 02:01:14;;;;;;;5.15;3.50;;;16.40;99.90;;;17.16;71.43;98953.41;5136899;28;20351;-61
2022/07/08 02:03:48;;;;;;;3.95;2.90;;;16.40;99.90;;;17.17;71.03;98952.59;5141597;28;20208;-58
2022/07/08 02:06:21;;;;;;;4.72;3.25;;;16.40;99.90;;;17.21;71.88;98958.00;5136357;28;20207;-56
2022/07/08 02:08:55;;;;;;;4.10;3.10;;;16.40;99.90;;;17.14;71.24;98955.03;5136317;28;21177;-58
2022/07/08 02:14:20;;;;;;;4.03;3.10;;;16.30;99.90;;;17.08;71.45;98956.53;5136667;28;20302;-58
2022/07/08 02:16:54;;;;;;;5.72;3.45;;;16.30;99.90;;;17.09;71.34;98963.44;5136021;28;20208;-58
2022/07/08 02:19:27;;;;;;;3.53;3.10;;;16.30;99.90;;;17.06;71.46;98958.13;5139072;28;20637;-58
2022/07/08 02:22:00;;;;;;;3.67;2.80;;;16.30;99.90;;;17.07;71.95;98965.06;5137542;28;20650;-57
2022/07/08 02:24:35;;;;;;;5.30;3.42;;;16.30;99.90;;;17.09;72.26;98960.88;5141363;28;20291;-58
2022/07/08 02:27:09;;;;;;;4.00;3.22;;;16.30;99.90;;;17.08;70.82;98965.94;5133627;28;20200;-58
2022/07/08 02:29:42;;;;;;;4.20;3.00;;;16.30;99.90;;;17.05;70.63;98961.53;5137602;28;20243;-58
2022/07/08 02:32:16;;;;;;;5.53;2.45;;;16.20;99.90;;;17.04;65.67;98970.06;5135727;28;20228;-57
2022/07/08 02:34:49;;;;;;;2.72;2.20;;;16.20;99.90;;;17.00;63.72;98968.16;5138248;28;20647;-58
2022/07/08 02:37:22;;;;;;;5.28;2.60;;;16.10;99.90;;;16.99;63.02;98968.06;5135971;28;20237;-59
2022/07/08 02:39:57;;;;;;;4.57;2.75;;;16.10;99.90;;;16.89;64.21;98975.38;5135837;28;20254;-58
2022/07/08 02:42:30;;;;;;;4.10;2.58;;;16.00;99.90;;;16.89;61.29;98984.81;5138245;28;20222;-56
2022/07/08 02:45:04;;;;;;;6.25;2.55;;;16.00;99.60;;;16.86;61.13;98979.50;5134636;28;20684;-60
2022/07/08 02:47:37;;;;;;;4.13;2.33;;;16.00;99.70;;;16.77;60.70;98979.00;5137608;28;20255;-58
2022/07/08 02:50:11;;;;;;;4.53;2.33;;;16.00;99.00;;;16.78;60.80;98981.69;5137453;28;20231;-58
2022/07/08 02:52:44;;;;;;;4.53;2.40;;;16.00;99.20;;;16.73;60.18;98975.38;5137220;28;20207;-59
2022/07/08 02:55:18;;;;;;;4.28;2.40;;;15.90;98.70;;;16.80;59.75;98980.09;5131374;28;20228;-58
2022/07/08 02:57:52;;;;;;;3.53;2.33;;;16.00;98.30;;;16.64;59.19;98977.47;5135910;28;20683;-57
2022/07/08 03:00:25;;;;;;;5.15;2.40;;;15.80;97.70;;;16.56;59.18;98987.41;5135342;28;20219;-60
2022/07/08 03:02:58;;;;;;;3.85;2.40;;;15.80;97.70;;;16.38;59.09;99005.41;5137843;28;20274;-57
2022/07/08 03:05:32;;;;;;;3.97;2.38;;;15.70;97.70;;;16.44;58.11;99004.84;5140342;28;20612;-60
2022/07/08 03:08:05;;;;;;;5.07;2.55;;;15.60;97.00;;;16.43;58.56;99008.25;5137433;28;20192;-58
2022/07/08 03:10:40;;;;;;;5.63;2.38;;;15.60;97.80;;;16.45;59.42;99011.78;5137188;28;20223;-57
2022/07/08 03:13:13;;;;;;;4.07;2.13;;;15.70;98.30;;;16.46;59.91;99008.41;5136749;28;20254;-58
2022/07/08 03:15:46;;;;;;;5.28;2.20;;;15.80;98.30;;;16.40;58.50;99014.13;5139194;28;20555;-57
2022/07/08 03:18:20;;;;;;;6.50;2.03;;;15.60;97.20;;;16.38;58.69;99020.00;5136493;28;20196;-58
2022/07/08 03:20:54;;;;;;;3.65;2.30;;;15.60;97.30;;;16.38;58.81;99025.19;5139354;28;20254;-59
2022/07/08 03:23:27;;;;;;;2.88;1.92;;;15.60;97.90;;;16.38;57.29;99030.34;5133581;28;20650;-56
2022/07/08 03:26:01;;;;;;;5.07;2.10;;;15.60;96.30;;;16.27;57.82;99036.63;5138324;28;20212;-58
2022/07/08 03:28:35;;;;;;;2.42;2.10;;;15.50;96.70;;;16.17;58.00;99036.13;5137848;28;20719;-54
2022/07/08 03:31:08;;;;;;;4.05;2.22;;;15.40;96.90;;;16.21;58.27;99030.31;5134658;28;20294;-55
2022/07/08 03:33:41;;;;;;;5.03;2.30;;;15.40;96.70;;;16.12;57.23;99034.97;5136159;28;20204;-61
2022/07/08 03:36:14;;;;;;;5.53;2.17;;;15.30;96.50;;;16.04;57.88;99041.41;5136058;28;20211;-61
2022/07/08 03:38:47;;;;;;;4.47;2.20;;;15.30;96.70;;;15.98;59.45;99043.66;5133919;28;20291;-57
2022/07/08 03:41:21;;;;;;;5.03;2.35;;;15.30;97.60;;;16.03;59.47;99051.66;5141617;28;20331;-58
2022/07/08 03:43:55;;;;;;;4.55;2.00;;;15.30;98.00;;;16.04;60.27;99056.88;5142377;28;20199;-57
2022/07/08 03:46:28;;;;;;;2.53;2.10;;;15.30;98.10;;;16.08;60.51;99056.28;5138905;28;20262;-58
2022/07/08 03:49:02;;;;;;;5.22;2.10;;;15.40;99.00;;;16.12;60.65;99060.78;5137891;28;20582;-59
2022/07/08 03:51:35;;;;;;;6.20;2.35;;;15.40;98.60;;;16.14;60.90;99066.91;5145722;28;20302;-58
2022/07/08 03:54:09;;;;;;;3.42;2.20;;;15.40;98.90;;;16.21;60.75;99061.28;5139999;28;20205;-61
2022/07/08 03:56:44;;;;;;;4.93;2.40;;;15.50;98.40;;;16.25;60.51;99071.75;5135511;28;20670;-59
2022/07/08 03:59:18;;;;;;;4.30;2.20;;;15.50;98.50;;;16.29;60.61;99071.13;5135832;28;20247;-58
2022/07/08 04:01:51;;;;;;;3.85;2.20;;;15.50;99.20;;;16.29;61.39;99072.00;5136206;28;20220;-57
2022/07/08 04:04:24;;;;;;;4.57;2.03;;;15.60;99.50;;;16.31;61.35;99077.25;5141983;28;20196;-58
2022/07/08 04:06:57;;;;;;;5.63;2.30;;;15.50;98.70;;;16.32;61.16;99089.34;5132955;28;20586;-58
2022/07/08 04:09:30;;;;;;;3.90;2.45;;;15.60;98.80;;;16.35;61.82;99081.78;5141207;28;20247;-57
2022/07/08 04:12:06;;;;;;;4.43;2.15;;;15.60;99.60;;;16.33;60.86;99085.97;5137376;28;20259;-57
2022/07/08 04:14:40;;;;;;;4.55;2.03;;;15.60;98.10;;;16.34;60.95;99083.47;5140732;28;20705;-55
2022/07/08 04:17:13;;;;;;;4.93;2.40;;;15.60;98.50;;;16.37;61.48;99088.81;5140732;28;20204;-55
2022/07/08 04:19:46;;;;;;;6.40;2.72;;;15.70;98.90;;;16.36;59.23;99089.59;5143222;28;20679;-60
2022/07/08 04:22:19;;;;;;;2.95;2.13;;;15.60;97.80;;;16.36;60.44;99088.72;5135700;28;20232;-55
2022/07/08 04:24:52;;;;;;;3.65;2.25;;;15.60;98.60;;;16.41;60.36;99087.28;5135120;28;20196;-56
2022/07/08 04:27:27;;;;;;;5.28;2.30;;;15.70;98.50;;;16.42;60.47;99094.19;5137893;28;20200;-53
2022/07/08 04:30:00;;;;;;;5.63;2.45;;;15.70;99.20;;;16.46;61.00;99091.00;5141244;28;20271;-59
2022/07/08 04:32:33;;;;;;;4.88;2.20;;;15.70;98.90;;;16.48;60.52;99085.91;5136820;28;20592;-60
2022/07/08 04:35:08;;;;;;;5.00;2.40;;;15.70;98.60;;;16.47;61.83;99092.75;5134861;28;20195;-59
2022/07/08 04:37:41;;;;;;;4.07;2.25;;;15.70;99.20;;;16.52;61.44;99086.16;5144454;28;20655;-60
2022/07/08 04:40:15;;;;;;;4.80;2.20;;;15.70;99.60;;;16.53;62.40;99097.34;5135820;28;20290;-53
2022/07/08 04:42:49;;;;;;;4.05;2.20;;;15.70;99.80;;;16.53;62.87;99089.63;5144143;28;20587;-54
2022/07/08 04:45:23;;;;;;;3.08;1.98;;;15.70;99.90;;;16.55;62.29;99086.31;5136790;28;20196;-58
2022/07/08 04:47:56;;;;;;;3.70;2.45;;;15.70;99.90;;;16.59;62.84;99088.25;5132110;28;20208;-58
2022/07/08 04:50:31;;;;;;;3.40;2.05;;;15.70;99.90;;;16.62;62.57;99097.84;5131598;28;20220;-59
2022/07/08 04:53:04;;;;;;;4.68;2.30;;;15.80;99.90;;;16.65;63.41;99093.75;5136395;28;20644;-58
2022/07/08 04:55:37;;;;;;;4.75;2.50;;;15.90;99.90;;;16.65;61.98;99093.75;5140702;28;20714;-54
2022/07/08 04:58:12;;;;;;;3.50;2.28;;;15.80;99.90;;;16.88;61.72;99099.25;5129150;28;20212;-58
2022/07/08 05:00:45;;;;;;;4.90;2.30;;;16.00;99.90;;;16.92;62.49;99097.72;5126310;28;20651;-52
2022/07/08 05:03:18;;;;;;;5.60;2.65;;;16.00;99.90;;;16.96;61.52;99099.66;5142227;28;20227;-58
2022/07/08 05:05:56;;;;;;;5.63;2.60;;;16.00;99.90;;;16.96;62.54;99097.06;5144147;28;20623;-53
2022/07/08 05:08:29;;;;;;;4.22;2.53;;;16.00;99.90;;;17.04;62.28;99098.34;5143069;28;20200;-55
2022/07/08 05:11:04;;;;;;;4.22;2.40;;;16.20;99.90;;;16.98;59.89;99098.03;5138323;28;20655;-57
2022/07/08 05:13:38;;;;;;;4.93;2.22;;;16.20;98.80;;;17.19;60.10;99098.25;5141784;28;20207;-57
2022/07/08 05:16:11;;;;;;;4.70;2.25;;;16.30;99.20;;;17.32;60.63;99093.78;5142535;28;20478;-58
2022/07/08 05:18:45;;;;;;;3.75;2.25;;;16.40;99.40;;;17.46;60.25;99102.25;5141086;28;20204;-53
2022/07/08 05:21:18;;;;;;;5.60;2.53;;;16.50;98.90;;;17.70;59.75;99093.91;5133894;28;20282;-54
2022/07/08 05:23:51;;;;;;;5.20;2.55;;;16.80;98.70;;;18.20;57.70;99100.66;5143715;28;20688;-57
2022/07/08 05:26:24;;;;;;;4.38;2.30;;;17.40;97.10;;;18.56;55.70;99101.47;5137840;28;20199;-57
2022/07/08 05:29:00;;;;;;;4.65;2.40;;;17.70;95.90;;;19.28;54.39;99090.81;5137995;28;20207;-59
2022/07/08 05:31:33;;;;;;;3.75;1.80;;;18.20;95.40;;;19.08;52.72;99101.22;5139507;28;20219;-56
2022/07/08 05:34:06;;;;;;;4.75;2.30;;;18.10;94.00;;;19.56;50.96;99098.06;5145212;28;20208;-53
2022/07/08 05:36:40;;;;;;;4.35;2.00;;;18.40;93.30;;;19.99;49.44;99099.81;5137801;28;20609;-56
2022/07/08 05:39:13;;;;;;;4.63;2.00;;;18.80;92.70;;;20.47;48.26;99098.25;5137223;28;20204;-57
2022/07/08 05:41:46;;;;;;;6.35;2.00;;;19.20;91.70;;;21.07;46.80;99099.59;5136201;28;20232;-54
2022/07/08 05:44:20;;;;;;;3.65;1.80;;;19.80;90.80;;;21.15;45.96;99104.22;5135318;28;20332;-56
2022/07/08 05:46:53;;;;;;;3.33;2.05;;;19.90;90.30;;;21.36;45.07;99100.59;5137266;28;20200;-60
2022/07/08 05:49:27;;;;;;;4.38;1.83;;;20.00;89.40;;;21.62;45.43;99103.22;5137000;28;20609;-58
2022/07/08 05:52:00;;;;;;;6.45;2.08;;;20.10;89.90;;;21.69;44.10;99111.31;5137788;28;20639;-60
2022/07/08 05:54:33;;;;;;;5.43;1.92;;;20.30;87.80;;;21.87;43.17;99120.53;5134693;28;20197;-58
2022/07/08 05:57:07;;;;;;;4.95;2.25;;;20.10;87.60;;;21.59;44.11;99130.91;5137571;28;20242;-57
2022/07/08 05:59:42;;;;;;;4.63;1.92;;;19.80;89.30;;;20.84;45.77;99129.94;5135964;28;20196;-62
2022/07/08 06:02:15;;;;;;;3.70;2.00;;;19.40;90.10;;;20.86;46.44;99128.28;5132431;28;20200;-60
2022/07/08 06:04:48;;;;;;;4.22;2.40;;;19.20;90.30;;;20.41;47.22;99138.69;5142398;28;20668;-55
2022/07/08 06:07:21;;;;;;;4.97;2.10;;;18.80;91.10;;;20.13;48.65;99132.41;5134561;28;20265;-57
2022/07/08 06:09:54;;;;;;;5.97;2.33;;;18.50;92.30;;;19.73;49.17;99141.16;5138715;28;20247;-57
2022/07/08 06:12:27;;;;;;;4.88;2.20;;;18.30;92.20;;;19.38;49.78;99136.19;5140695;28;20212;-58
2022/07/08 06:15:02;;;;;;;5.30;2.28;;;18.00;92.10;;;19.27;49.58;99134.00;5133444;28;20250;-54
2022/07/08 06:17:37;;;;;;;4.82;2.38;;;17.90;92.10;;;19.10;50.64;99135.88;5137801;28;20562;-52
2022/07/08 06:20:12;;;;;;;4.93;2.20;;;17.80;92.70;;;18.90;51.62;99137.56;5136419;28;20361;-59
2022/07/08 06:22:53;;;;;;;5.43;2.28;;;17.60;93.30;;;18.99;50.97;99146.56;5131535;28;20330;-56
2022/07/08 06:25:26;;;;;;;6.30;1.95;;;17.70;92.90;;;18.98;51.32;99147.41;5128531;28;20244;-57
2022/07/08 06:27:59;;;;;;;3.25;2.15;;;17.70;93.20;;;18.83;52.11;99145.91;5131469;28;20204;-57
2022/07/08 06:30:34;;;;;;;3.58;1.80;;;17.60;93.40;;;18.96;51.45;99147.31;5136741;28;20282;-56
2022/07/08 06:33:07;;;;;;;4.03;1.98;;;17.70;93.40;;;18.99;50.97;99149.16;5144140;28;20194;-58
2022/07/08 06:35:41;;;;;;;4.97;2.25;;;17.70;93.10;;;18.92;50.98;99153.19;5136964;28;20204;-58
2022/07/08 06:38:14;;;;;;;3.70;1.92;;;17.70;92.60;;;18.87;48.54;99146.91;5135426;28;20263;-54
2022/07/08 06:40:47;;;;;;;3.53;1.60;;;17.60;90.70;;;18.92;48.03;99145.44;5141557;28;20242;-59
2022/07/08 06:43:20;;;;;;;4.47;1.95;;;17.60;90.60;;;18.76;49.11;99151.59;5140336;28;20212;-56
2022/07/08 06:45:55;;;;;;;3.10;1.80;;;17.60;91.20;;;18.93;48.91;99146.31;5135928;28;20664;-59
2022/07/08 06:48:28;;;;;;;2.97;1.80;;;17.70;91.10;;;18.98;49.11;99144.81;5133444;28;20199;-56
2022/07/08 06:51:02;;;;;;;5.60;2.00;;;17.80;91.50;;;19.04;48.93;99150.28;5136669;28;20379;-59
2022/07/08 06:56:22;;;;;;;3.13;1.80;;;18.10;90.50;;;19.38;46.71;99156.94;5125550;28;20263;-57
2022/07/08 06:58:55;;;;;;;3.22;1.58;;;18.10;89.50;;;19.59;45.93;99155.25;5138738;28;20212;-59
2022/07/08 07:01:30;;;;;;;3.03;1.60;;;18.40;88.30;;;19.93;45.81;99162.75;5133851;28;20223;-56
2022/07/08 07:04:03;;;;;;;3.65;1.80;;;18.60;89.30;;;19.87;45.48;99165.09;5140578;28;20228;-56
2022/07/08 07:06:37;;;;;;;4.28;1.80;;;18.50;88.20;;;19.96;45.45;99159.41;5139682;28;20553;-59
2022/07/08 07:09:11;;;;;;;2.38;1.92;;;18.60;88.20;;;19.88;45.15;99163.38;5130331;28;20606;-53
2022/07/08 07:11:44;;;;;;;2.70;1.63;;;18.50;87.60;;;19.75;45.10;99162.00;5131872;28;20238;-53
2022/07/08 07:14:18;;;;;;;5.15;1.73;;;18.40;87.90;;;19.71;44.60;99160.97;5141467;28;20211;-59
2022/07/08 07:16:52;;;;;;;2.40;1.50;;;18.40;86.70;;;19.75;44.93;99168.06;5140872;28;20212;-55
2022/07/08 07:19:26;;;;;;;4.00;1.70;;;18.40;86.90;;;19.77;44.91;99163.84;5145497;28;20233;-55
2022/07/08 07:21:59;;;;;;;4.22;1.60;;;18.40;87.00;;;19.67;45.96;99161.69;5148250;28;20239;-59
2022/07/08 07:24:32;;;;;;;3.03;2.08;;;18.30;89.20;;;19.84;49.40;99164.97;5141515;28;20630;-58
2022/07/08 07:27:06;;;;;;;4.20;1.90;;;18.40;92.20;;;19.92;49.71;99165.31;5144843;28;20204;-57
2022/07/08 07:29:39;;;;;;;5.53;2.35;;;18.50;92.20;;;19.97;48.86;99166.34;5146815;28;20602;-57
2022/07/08 07:32:13;;;;;;;5.07;2.30;;;18.50;91.70;;;20.18;48.39;99162.03;5142223;28;20647;-54
2022/07/08 07:34:47;;;;;;;5.93;2.20;;;18.70;91.40;;;20.27;47.87;99171.03;5144301;28;20200;-60
2022/07/08 07:37:20;;;;;;;4.80;2.08;;;18.70;91.20;;;20.41;47.42;99175.94;5142815;28;20652;-57
2022/07/08 07:39:53;;;;;;;5.60;2.42;;;18.70;90.90;;;20.69;46.93;99177.03;5145695;28;20839;-58
2022/07/08 07:42:26;;;;;;;3.97;2.03;;;19.00;90.80;;;20.76;46.11;99184.22;5149598;28;20700;-55
2022/07/08 07:45:00;;;;;;;2.10;1.60;;;19.20;90.00;;;20.77;44.75;99177.31;5142772;28;20578;-56
2022/07/08 07:47:35;;;;;;;4.97;2.00;;;19.30;88.90;;;20.99;45.23;99187.69;5142663;28;20208;-60
2022/07/08 07:50:12;;;;;;;3.67;1.88;;;19.30;89.40;;;20.95;44.50;99182.34;5142163;28;20265;-56
2022/07/08 07:52:45;;;;;;;2.60;1.85;;;19.30;88.20;;;20.85;43.82;99181.09;5145627;28;20199;-58
2022/07/08 07:55:18;;;;;;;4.03;1.98;;;19.40;86.50;;;20.95;44.18;99174.53;5144870;28;20200;-59
2022/07/08 07:57:51;;;;;;;3.40;1.85;;;19.60;86.90;;;21.02;43.18;99180.00;5140006;28;20205;-58
2022/07/08 08:00:25;;;;;;;3.17;1.60;;;19.60;85.10;;;21.11;42.96;99176.84;5144554;28;20228;-61
2022/07/08 08:03:03;;;;;;;2.78;1.70;;;19.60;85.10;;;20.83;43.59;99168.06;5146595;28;20204;-58
2022/07/08 08:05:38;;;;;;;8.00;2.28;;;19.50;85.60;;;20.61;44.62;99181.06;5142368;28;20211;-58
2022/07/08 08:08:12;;;;;;;3.88;2.00;;;19.30;86.80;;;20.55;45.16;99176.50;5138687;28;20204;-58
2022/07/08 08:10:45;;;;;;;5.15;1.85;;;19.30;88.00;;;20.37;45.06;99178.34;5145394;28;20231;-60
2022/07/08 08:13:19;;;;;;;4.60;2.00;;;19.20;87.00;;;20.42;44.89;99182.00;5143093;28;20633;-59
2022/07/08 08:15:52;;;;;;;3.90;1.95;;;19.20;86.60;;;21.18;44.06;99178.88;5141600;28;20680;-59
2022/07/08 08:18:26;;;;;;;3.55;1.70;;;19.80;85.80;;;21.96;41.33;99173.78;5140079;28;20282;-58
2022/07/08 08:21:00;;;;;;;2.78;1.42;;;20.70;82.20;;;22.23;40.06;99173.84;5140882;28;20255;-57
2022/07/08 08:23:33;;;;;;;4.20;1.80;;;21.10;80.10;;;23.45;39.26;99180.91;5143300;28;20204;-58
2022/07/08 08:26:06;;;;;;;4.70;1.90;;;22.00;79.60;;;24.19;37.23;99178.50;5144808;28;20278;-60
2022/07/08 08:28:39;;;;;;;3.22;1.83;;;22.80;76.90;;;24.17;36.58;99174.97;5144190;28;20196;-58
2022/07/08 08:31:13;;;;;;;2.85;1.75;;;22.60;76.30;;;23.97;37.17;99177.09;5142644;28;20493;-60
2022/07/08 08:33:47;;;;;;;3.15;1.80;;;22.40;76.70;;;23.34;38.51;99182.34;5142874;28;20207;-61
2022/07/08 08:36:20;;;;;;;3.72;1.80;;;21.60;79.10;;;22.57;38.43;99182.69;5138792;28;20257;-59
2022/07/08 08:38:53;;;;;;;3.85;1.70;;;20.90;78.20;;;21.84;40.54;99173.38;5138896;28;20214;-61
2022/07/08 08:41:27;;;;;;;3.85;1.73;;;20.30;81.10;;;21.71;41.87;99184.22;5140142;28;20698;-58
2022/07/08 08:44:00;;;;;;;4.18;2.00;;;20.20;83.20;;;21.44;41.49;99187.63;5135106;28;20205;-58
2022/07/08 08:46:34;;;;;;;4.35;2.10;;;19.80;82.70;;;21.53;42.47;99179.25;5134330;28;20489;-59
2022/07/08 08:49:11;;;;;;;1.63;1.42;;;19.90;84.00;;;22.00;41.92;99173.03;5138183;28;20239;-59
2022/07/08 08:51:49;;;;;;;2.90;1.70;;;20.60;83.00;;;22.55;39.23;99179.19;5138994;28;20727;-58
2022/07/08 08:54:24;;;;;;;2.70;1.70;;;21.40;78.10;;;23.17;37.30;99163.63;5137876;28;20204;-60
2022/07/08 08:56:58;;;;;;;3.38;1.60;;;22.10;75.10;;;23.53;36.02;99168.09;5138226;28;20709;-59
2022/07/08 08:59:33;;;;;;;3.88;1.50;;;22.20;73.40;;;23.55;36.39;99169.00;5136153;28;20208;-61
2022/07/08 09:02:09;;;;;;;2.97;1.58;;;22.10;74.70;;;23.31;37.09;99162.28;5141261;28;20274;-60
2022/07/08 09:04:44;;;;;;;3.22;1.58;;;22.10;75.10;;;23.13;38.48;99170.47;5138589;28;20255;-59
2022/07/08 09:07:17;;;;;;;4.50;1.80;;;21.80;77.20;;;22.79;39.52;99168.59;5139061;28;20628;-59
2022/07/08 09:09:50;;;;;;;3.97;1.80;;;21.50;79.00;;;22.58;39.79;99170.56;5137440;28;20204;-60
2022/07/08 09:12:25;;;;;;;3.47;1.90;;;21.20;79.40;;;22.46;39.66;99165.84;5134134;28;20640;-60
2022/07/08 09:15:00;;;;;;;3.10;2.00;;;20.90;79.50;;;22.34;40.69;99163.75;5140912;28;20204;-58
2022/07/08 09:17:43;;;;;;;3.85;1.95;;;20.80;80.90;;;22.44;40.59;99163.19;5138572;28;20211;-59
2022/07/08 09:20:18;;;;;;;3.08;1.70;;;20.90;81.20;;;22.68;38.43;99160.44;5139033;28;20216;-60
2022/07/08 09:22:51;;;;;;;3.08;2.40;;;21.10;77.40;;;22.70;39.20;99170.94;5145200;28;20207;-56
2022/07/08 09:25:24;;;;;;;3.83;1.73;;;21.10;78.40;;;22.32;38.69;99162.84;5136175;28;20228;-55
2022/07/08 09:27:58;;;;;;;2.92;1.88;;;20.90;77.40;;;21.94;39.94;99175.44;5143065;28;20258;-58
2022/07/08 09:30:31;;;;;;;3.78;1.77;;;20.60;78.80;;;22.07;39.27;99170.66;5136217;28;20221;-58
2022/07/08 09:33:04;;;;;;;3.55;1.70;;;20.50;78.50;;;22.03;39.55;99165.34;5142026;28;20552;-57
2022/07/08 09:35:40;;;;;;;3.08;1.85;;;20.60;78.40;;;22.32;39.54;99177.56;5140164;28;20259;-58
2022/07/08 09:38:13;;;;;;;3.72;1.70;;;21.00;78.10;;;22.54;39.54;99173.91;5135471;28;20680;-59
2022/07/08 09:40:55;;;;;;;3.42;1.80;;;21.40;77.80;;;22.56;39.59;99174.84;5138717;28;20700;-59
2022/07/08 09:43:28;;;;;;;2.88;1.63;;;21.50;78.10;;;22.72;38.61;99174.47;5145193;28;20200;-59
2022/07/08 09:46:05;;;;;;;3.70;1.80;;;21.60;75.70;;;22.54;39.78;99174.78;5145993;28;20244;-58
2022/07/08 09:48:38;;;;;;;4.70;1.73;;;21.50;77.20;;;22.65;38.54;99177.72;5143750;28;20255;-57
2022/07/08 09:51:17;;;;;;;2.83;1.55;;;21.50;76.30;;;22.30;39.38;99174.03;5147026;28;20219;-59
2022/07/08 09:53:50;;;;;;;3.53;1.60;;;21.50;76.30;;;22.50;39.74;99175.53;5137719;28;20243;-58
2022/07/08 09:56:27;;;;;;;2.40;1.88;;;21.60;77.10;;;23.05;39.00;99165.88;5137836;28;20211;-57
2022/07/08 09:59:01;;;;;;;1.88;1.48;;;22.10;76.50;;;23.07;37.61;99164.22;5141703;28;20577;-59
2022/07/08 10:01:34;;;;;;;3.20;1.40;;;22.00;74.80;;;23.39;36.74;99168.59;5138310;28;20763;-57
2022/07/08 10:04:07;;;;;;;2.72;1.52;;;22.40;73.00;;;23.53;36.42;99166.34;5141136;28;20215;-57
2022/07/08 10:06:42;;;;;;;3.67;1.65;;;22.50;73.30;;;23.39;36.73;99159.88;5133795;28;20209;-59
2022/07/08 10:09:15;;;;;;;3.22;1.67;;;22.30;73.40;;;23.05;37.53;99171.09;5136835;28;20624;-56
2022/07/08 10:11:49;;;;;;;3.15;1.70;;;21.90;74.50;;;22.68;38.74;99178.69;5140979;28;20270;-59
2022/07/08 10:14:23;;;;;;;3.92;1.85;;;21.60;76.30;;;22.47;39.53;99176.31;5144669;28;20212;-58
2022/07/08 10:16:57;;;;;;;3.50;1.60;;;21.30;77.40;;;22.51;38.95;99172.09;5132056;28;20571;-58
2022/07/08 10:19:38;;;;;;;3.70;1.73;;;21.40;76.70;;;22.35;38.58;99178.56;5142891;28;20203;-58
2022/07/08 10:22:13;;;;;;;2.85;1.80;;;21.30;75.20;;;22.25;37.88;99166.94;5132925;28;20228;-58
2022/07/08 10:24:48;;;;;;;2.05;1.50;;;21.10;74.60;;;22.18;39.59;99169.31;5137740;28;20651;-60
2022/07/08 10:27:25;;;;;;;2.80;1.75;;;21.20;77.00;;;22.27;39.08;99169.63;5133008;28;20271;-59
2022/07/08 10:30:13;;;;;;;2.90;1.80;;;21.30;76.10;;;22.45;39.01;99164.09;5134937;28;20204;-57
2022/07/08 10:32:47;;;;;;;2.83;1.63;;;21.60;75.70;;;22.48;38.07;99164.19;5137246;28;20216;-56
2022/07/08 10:35:22;;;;;;;2.55;1.65;;;21.60;74.20;;;22.46;39.75;99165.84;5136268;28;20250;-56
2022/07/08 10:37:59;;;;;;;1.98;1.67;;;21.70;76.30;;;22.60;40.28;99168.88;5134685;28;20696;-57
2022/07/08 10:40:50;;;;;;;2.30;1.67;;;21.90;76.80;;;22.74;39.70;99164.97;5136002;28;20307;-58
2022/07/08 10:43:32;;;;;;;3.13;1.77;;;21.90;76.80;;;22.10;40.15;99168.16;5135712;28;20199;-58
2022/07/08 10:46:12;;;;;;;3.22;1.58;;;21.40;77.10;;;22.02;41.83;99166.16;5141762;28;20327;-58
2022/07/08 10:48:56;;;;;;;3.88;2.03;;;21.00;79.60;;;22.14;41.54;99168.28;5135824;28;20260;-55
2022/07/08 10:52:03;;;;;;;2.35;1.63;;;21.10;80.20;;;22.59;40.50;99173.22;5139137;28;20227;-60
2022/07/08 10:54:38;;;;;;;2.92;1.90;;;21.60;78.40;;;22.51;40.00;99174.69;5139139;28;20207;-58